Iona Mcallister — WDD4840 — position and weather

sailwx.info

Track history (hours):
 
Tides and Currents Weather Stations Pressure Air Temp Water Temp Dewpoint Dewpoint Depression Visibility Wind Speed Wind Dir Waves Ship Positions

Iona Mcallister

Owner: McAllister Towing & Transportation Co. Inc., Staten Island, NY. More information available from US FCC via Universal Licensing System and Coast Guard Vessel Documentation Center.

Last reported at 2016-Aug-27 10:27 UTC. Time now 2016-Aug-27 18:44 UTC.
Position N 41°49' W 071°24'.

Length 36 m; draft 3 m.

Type: Towing. MMSI: 367149890.

Date/timePositionNaut miles runAvg speedWind from/ knotsBaromVisibWave heightAir tempDewpointWater temp
2016-Aug-27 10:27N 41°49' W 071°24'0 0.0
2016-Aug-27 09:30N 41°49' W 071°24'0 0.0
2016-Aug-27 08:32N 41°49' W 071°24'0 0.0
2016-Aug-27 07:32N 41°49' W 071°24'0 0.0
2016-Aug-27 06:17N 41°49' W 071°24'3 0.1
2016-Aug-26 11:33N 41°47' W 071°22'8 8.0
2016-Aug-26 10:33N 41°39' W 071°22'2 0.1
2016-Aug-25 08:31N 41°37' W 071°24'0 0.0
2016-Aug-25 07:33N 41°37' W 071°24'3 0.2
2016-Aug-24 16:32N 41°39' W 071°22'10 1.4
2016-Aug-24 09:19N 41°49' W 071°24'1 1.0
2016-Aug-24 08:30N 41°48' W 071°24'0 0.5
2016-Aug-24 07:33N 41°48' W 071°23'0 0.4
2016-Aug-24 06:31N 41°48' W 071°24'1 0.3
2016-Aug-24 03:32N 41°49' W 071°24'0 0.0
2016-Aug-24 02:33N 41°49' W 071°24'0 0.0
2016-Aug-24 01:32N 41°49' W 071°24'0 0.0
2016-Aug-24 00:33N 41°49' W 071°24'0 0.0
2016-Aug-23 23:34N 41°49' W 071°24'3 2.0
2016-Aug-23 22:15N 41°47' W 071°22'7 8.7
2016-Aug-23 21:28N 41°40' W 071°19'9 0.6
2016-Aug-23 04:30N 41°31' W 071°21'6 0.7
2016-Aug-22 20:24N 41°36' W 071°24'0 0.0
2016-Aug-22 10:25N 41°36' W 071°24'1 0.1
2016-Aug-21 23:22N 41°35' W 071°25'6 7.0
2016-Aug-21 22:33N 41°40' W 071°21'8 7.5
2016-Aug-21 21:33N 41°48' W 071°23'1 1.2
2016-Aug-21 20:31N 41°49' W 071°24'0 0.0
2016-Aug-21 19:24N 41°49' W 071°24'1 0.1
2016-Aug-21 09:22N 41°48' W 071°23'0 0.0
2016-Aug-21 07:22N 41°48' W 071°23'0 0.1
2016-Aug-21 03:34N 41°48' W 071°23'0 0.2
2016-Aug-21 02:33N 41°47' W 071°23'0 0.0
2016-Aug-20 22:25N 41°47' W 071°23'1 0.3
2016-Aug-20 20:13N 41°47' W 071°22'2 1.2
2016-Aug-20 18:11N 41°49' W 071°24'0 0.0
2016-Aug-20 17:30N 41°49' W 071°24'0 0.0
2016-Aug-20 15:18N 41°49' W 071°24'1 1.3
2016-Aug-20 14:26N 41°48' W 071°23'1 1.1
2016-Aug-20 13:27N 41°49' W 071°24'0 0.0
2016-Aug-20 09:30N 41°49' W 071°24'0 0.0
2016-Aug-20 08:33N 41°49' W 071°24'0 0.0
2016-Aug-20 07:31N 41°49' W 071°24'0 0.0
2016-Aug-20 06:31N 41°49' W 071°24'0 0.0
2016-Aug-20 05:33N 41°49' W 071°24'0 0.0
2016-Aug-20 04:32N 41°49' W 071°24'0 0.0
2016-Aug-20 03:24N 41°49' W 071°24'0 0.0
2016-Aug-20 02:24N 41°49' W 071°24'0 0.0
2016-Aug-20 01:33N 41°49' W 071°24'0 0.0
2016-Aug-20 00:29N 41°49' W 071°24'6 6.2
2016-Aug-19 23:33N 41°44' W 071°21'7 2.2
2016-Aug-19 20:20N 41°37' W 071°24'0 0.0
2016-Aug-19 10:22N 41°36' W 071°24'1 1.0
2016-Aug-19 09:04N 41°35' W 071°24'0 0.1
2016-Aug-19 08:31N 41°35' W 071°24'7 7.3
2016-Aug-19 07:33N 41°42' W 071°21'6 4.0
2016-Aug-19 06:10N 41°47' W 071°22'2 0.2
2016-Aug-18 18:08N 41°49' W 071°24'2 2.4
2016-Aug-18 17:24N 41°47' W 071°23'1 1.1
2016-Aug-18 16:33N 41°47' W 071°22'2 1.7
2016-Aug-18 15:29N 41°48' W 071°24'1 0.4
2016-Aug-18 13:19N 41°49' W 071°24'0 0.0
2016-Aug-18 12:26N 41°49' W 071°24'2 1.0
2016-Aug-18 10:26N 41°47' W 071°22'1 0.6
2016-Aug-18 09:32N 41°48' W 071°23'0 0.0
2016-Aug-18 08:25N 41°48' W 071°23'0 0.1
2016-Aug-18 06:26N 41°48' W 071°23'0 0.1
2016-Aug-18 02:03N 41°47' W 071°23'2 0.7
2016-Aug-17 23:29N 41°49' W 071°24'0 0.0
2016-Aug-17 19:32N 41°49' W 071°24'0 0.0
2016-Aug-17 18:30N 41°49' W 071°24'0 0.0
2016-Aug-17 17:31N 41°49' W 071°24'2 2.4
2016-Aug-17 16:33N 41°47' W 071°22'  
Track history (hours):
 
Tides and Currents Weather Stations Pressure Air Temp Water Temp Dewpoint Dewpoint Depression Visibility Wind Speed Wind Dir Waves Ship Positions

Iona Mcallister

Owner: McAllister Towing & Transportation Co. Inc., Staten Island, NY. More information available from US FCC via Universal Licensing System and Coast Guard Vessel Documentation Center.

Last reported at 2016-Aug-27 10:27 UTC. Time now 2016-Aug-27 18:44 UTC.
Position N 41°49' W 071°24'.

Length 36 m; draft 3 m.

Type: Towing. MMSI: 367149890.

Date/timePositionNaut miles runAvg speedWind from/ knotsBaromVisibWave heightAir tempDewpointWater temp
2016-Aug-27 10:27N 41°49' W 071°24'0 0.0
2016-Aug-27 09:30N 41°49' W 071°24'0 0.0
2016-Aug-27 08:32N 41°49' W 071°24'0 0.0
2016-Aug-27 07:32N 41°49' W 071°24'0 0.0
2016-Aug-27 06:17N 41°49' W 071°24'3 0.1
2016-Aug-26 11:33N 41°47' W 071°22'8 8.0
2016-Aug-26 10:33N 41°39' W 071°22'2 0.1
2016-Aug-25 08:31N 41°37' W 071°24'0 0.0
2016-Aug-25 07:33N 41°37' W 071°24'3 0.2
2016-Aug-24 16:32N 41°39' W 071°22'10 1.4
2016-Aug-24 09:19N 41°49' W 071°24'1 1.0
2016-Aug-24 08:30N 41°48' W 071°24'0 0.5
2016-Aug-24 07:33N 41°48' W 071°23'0 0.4
2016-Aug-24 06:31N 41°48' W 071°24'1 0.3
2016-Aug-24 03:32N 41°49' W 071°24'0 0.0
2016-Aug-24 02:33N 41°49' W 071°24'0 0.0
2016-Aug-24 01:32N 41°49' W 071°24'0 0.0
2016-Aug-24 00:33N 41°49' W 071°24'0 0.0
2016-Aug-23 23:34N 41°49' W 071°24'3 2.0
2016-Aug-23 22:15N 41°47' W 071°22'7 8.7
2016-Aug-23 21:28N 41°40' W 071°19'9 0.6
2016-Aug-23 04:30N 41°31' W 071°21'6 0.7
2016-Aug-22 20:24N 41°36' W 071°24'0 0.0
2016-Aug-22 10:25N 41°36' W 071°24'1 0.1
2016-Aug-21 23:22N 41°35' W 071°25'6 7.0
2016-Aug-21 22:33N 41°40' W 071°21'8 7.5
2016-Aug-21 21:33N 41°48' W 071°23'1 1.2
2016-Aug-21 20:31N 41°49' W 071°24'0 0.0
2016-Aug-21 19:24N 41°49' W 071°24'1 0.1
2016-Aug-21 09:22N 41°48' W 071°23'0 0.0
2016-Aug-21 07:22N 41°48' W 071°23'0 0.1
2016-Aug-21 03:34N 41°48' W 071°23'0 0.2
2016-Aug-21 02:33N 41°47' W 071°23'0 0.0
2016-Aug-20 22:25N 41°47' W 071°23'1 0.3
2016-Aug-20 20:13N 41°47' W 071°22'2 1.2
2016-Aug-20 18:11N 41°49' W 071°24'0 0.0
2016-Aug-20 17:30N 41°49' W 071°24'0 0.0
2016-Aug-20 15:18N 41°49' W 071°24'1 1.3
2016-Aug-20 14:26N 41°48' W 071°23'1 1.1
2016-Aug-20 13:27N 41°49' W 071°24'0 0.0
2016-Aug-20 09:30N 41°49' W 071°24'0 0.0
2016-Aug-20 08:33N 41°49' W 071°24'0 0.0
2016-Aug-20 07:31N 41°49' W 071°24'0 0.0
2016-Aug-20 06:31N 41°49' W 071°24'0 0.0
2016-Aug-20 05:33N 41°49' W 071°24'0 0.0
2016-Aug-20 04:32N 41°49' W 071°24'0 0.0
2016-Aug-20 03:24N 41°49' W 071°24'0 0.0
2016-Aug-20 02:24N 41°49' W 071°24'0 0.0
2016-Aug-20 01:33N 41°49' W 071°24'0 0.0
2016-Aug-20 00:29N 41°49' W 071°24'6 6.2
2016-Aug-19 23:33N 41°44' W 071°21'7 2.2
2016-Aug-19 20:20N 41°37' W 071°24'0 0.0
2016-Aug-19 10:22N 41°36' W 071°24'1 1.0
2016-Aug-19 09:04N 41°35' W 071°24'0 0.1
2016-Aug-19 08:31N 41°35' W 071°24'7 7.3
2016-Aug-19 07:33N 41°42' W 071°21'6 4.0
2016-Aug-19 06:10N 41°47' W 071°22'2 0.2
2016-Aug-18 18:08N 41°49' W 071°24'2 2.4
2016-Aug-18 17:24N 41°47' W 071°23'1 1.1
2016-Aug-18 16:33N 41°47' W 071°22'2 1.7
2016-Aug-18 15:29N 41°48' W 071°24'1 0.4
2016-Aug-18 13:19N 41°49' W 071°24'0 0.0
2016-Aug-18 12:26N 41°49' W 071°24'2 1.0
2016-Aug-18 10:26N 41°47' W 071°22'1 0.6
2016-Aug-18 09:32N 41°48' W 071°23'0 0.0
2016-Aug-18 08:25N 41°48' W 071°23'0 0.1
2016-Aug-18 06:26N 41°48' W 071°23'0 0.1
2016-Aug-18 02:03N 41°47' W 071°23'2 0.7
2016-Aug-17 23:29N 41°49' W 071°24'0 0.0
2016-Aug-17 19:32N 41°49' W 071°24'0 0.0
2016-Aug-17 18:30N 41°49' W 071°24'0 0.0
2016-Aug-17 17:31N 41°49' W 071°24'2 2.4
2016-Aug-17 16:33N 41°47' W 071°22'  

Dump ship's entire track history